createdAt,value
2022-07-29T04:41:14.009Z,940.47
2022-07-29T04:42:13.998Z,940.52
2022-07-29T04:43:14.223Z,940.53
2022-07-29T04:44:14.202Z,940.52
2022-07-29T04:45:16.542Z,940.52
2022-07-29T04:46:14.034Z,940.51
2022-07-29T04:47:13.964Z,940.54
2022-07-29T04:48:13.973Z,940.51
2022-07-29T04:49:13.997Z,940.49
2022-07-29T04:50:13.978Z,940.48
2022-07-29T04:51:13.924Z,940.50
2022-07-29T04:52:13.934Z,940.45
2022-07-29T04:53:13.942Z,940.47
2022-07-29T04:54:14.296Z,940.47
2022-07-29T04:55:13.896Z,940.48
2022-07-29T04:56:13.916Z,940.48
2022-07-29T04:57:13.876Z,940.51
2022-07-29T04:58:13.845Z,940.49
2022-07-29T04:59:13.857Z,940.49
2022-07-29T05:00:13.858Z,940.51
2022-07-29T05:01:13.929Z,940.49
2022-07-29T05:02:13.851Z,940.49
2022-07-29T05:03:13.829Z,940.48
2022-07-29T05:04:16.726Z,940.49
2022-07-29T05:05:49.411Z,940.50
2022-07-29T05:06:46.059Z,940.49
2022-07-29T05:07:19.856Z,940.45
2022-07-29T05:08:13.778Z,940.45
2022-07-29T05:09:16.354Z,940.46
2022-07-29T05:10:15.568Z,940.47
2022-07-29T05:11:18.125Z,940.47
2022-07-29T05:12:14.262Z,940.49
2022-07-29T05:13:15.080Z,940.52
2022-07-29T05:14:38.581Z,940.53
2022-07-29T05:15:22.068Z,940.54
2022-07-29T05:16:18.661Z,940.54
2022-07-29T05:17:15.064Z,940.54
2022-07-29T05:18:26.206Z,940.54
2022-07-29T05:19:16.353Z,940.52
2022-07-29T05:20:13.685Z,940.50
2022-07-29T05:21:16.284Z,940.51
2022-07-29T05:22:22.586Z,940.50
2022-07-29T05:23:13.784Z,940.51
2022-07-29T05:24:14.112Z,940.50
2022-07-29T05:25:15.082Z,940.51
2022-07-29T05:26:16.101Z,940.52
2022-07-29T05:27:13.578Z,940.51
2022-07-29T05:28:13.598Z,940.53
2022-07-29T05:29:43.794Z,940.52
2022-07-29T05:30:15.541Z,940.53
2022-07-29T05:31:14.917Z,940.52
2022-07-29T05:32:20.371Z,940.54
2022-07-29T05:33:36.105Z,940.54
2022-07-29T05:34:24.086Z,940.55
2022-07-29T05:35:13.653Z,940.56
2022-07-29T05:36:16.100Z,940.55
2022-07-29T05:37:20.134Z,940.56
2022-07-29T05:38:13.765Z,940.56
2022-07-29T05:39:19.169Z,940.56
2022-07-29T05:40:23.555Z,940.58
2022-07-29T05:41:14.086Z,940.58
2022-07-29T05:42:20.076Z,940.58
2022-07-29T05:43:22.588Z,940.54
2022-07-29T05:44:55.291Z,940.55
2022-07-29T05:45:20.814Z,940.54
2022-07-29T05:46:29.880Z,940.55
2022-07-29T05:47:25.061Z,940.55
2022-07-29T05:48:14.048Z,940.56
2022-07-29T05:49:26.971Z,940.57
2022-07-29T05:50:19.197Z,940.56
2022-07-29T05:51:16.089Z,940.59
2022-07-29T05:52:14.274Z,940.58
2022-07-29T05:53:20.102Z,940.58
2022-07-29T05:54:23.488Z,940.58
2022-07-29T05:55:39.371Z,940.60
2022-07-29T05:56:14.086Z,940.63
2022-07-29T05:57:27.005Z,940.65
2022-07-29T05:58:13.356Z,940.64
2022-07-29T05:59:18.351Z,940.67
2022-07-29T06:00:24.847Z,940.68
2022-07-29T06:01:15.178Z,940.68
2022-07-29T06:02:23.898Z,940.63
2022-07-29T06:12:32.378Z,940.75
2022-07-29T06:13:29.433Z,940.75
2022-07-29T06:14:32.900Z,940.74
2022-07-29T06:15:58.627Z,940.75
2022-07-29T06:16:48.648Z,940.77
2022-07-29T06:17:40.168Z,940.75
2022-07-29T06:20:04.569Z,940.75
2022-07-29T06:20:27.149Z,940.74
2022-07-29T06:21:46.372Z,940.76
2022-07-29T06:22:26.298Z,940.76
2022-07-29T06:23:40.373Z,940.75
2022-07-29T06:25:49.850Z,940.77
2022-07-29T06:26:05.522Z,940.74
2022-07-29T06:27:12.930Z,940.76
2022-07-29T06:29:40.221Z,940.76
2022-07-29T06:30:39.437Z,940.76
2022-07-29T06:31:07.286Z,940.74
2022-07-29T06:33:33.692Z,940.74
2022-07-29T06:33:48.389Z,940.75
2022-07-29T06:35:37.755Z,940.75
2022-07-29T06:37:30.189Z,940.76
2022-07-29T06:37:46.072Z,940.79
2022-07-29T06:38:49.172Z,940.82
2022-07-29T06:39:40.835Z,940.83
2022-07-29T06:40:40.599Z,940.83
2022-07-29T06:41:39.877Z,940.84
2022-07-29T06:42:49.180Z,940.88
2022-07-29T06:43:51.809Z,940.89
2022-07-29T06:44:42.167Z,940.90
2022-07-29T06:45:52.432Z,940.92
2022-07-29T06:46:43.424Z,940.92
2022-07-29T06:48:47.206Z,940.94
2022-07-29T06:48:55.869Z,940.92
2022-07-29T06:49:55.377Z,940.94
2022-07-29T06:50:53.390Z,940.97
2022-07-29T06:51:52.527Z,940.98
2022-07-29T06:52:56.263Z,940.96
2022-07-29T06:53:59.611Z,940.97
2022-07-29T06:54:52.552Z,940.99
2022-07-29T06:55:52.567Z,941.01
2022-07-29T06:56:52.520Z,941.04
2022-07-29T06:57:52.510Z,941.05
2022-07-29T06:58:52.518Z,941.07
2022-07-29T06:59:52.495Z,941.08
2022-07-29T07:00:52.521Z,941.07
2022-07-29T07:01:53.299Z,941.07
2022-07-29T07:02:52.495Z,941.08
2022-07-29T07:03:57.081Z,941.08
2022-07-29T07:04:54.169Z,941.06
2022-07-29T07:05:52.477Z,941.07
2022-07-29T07:06:52.657Z,941.08
2022-07-29T07:07:54.135Z,941.08
2022-07-29T07:08:52.398Z,941.09
2022-07-29T07:09:54.382Z,941.10
2022-07-29T07:10:53.384Z,941.10
2022-07-29T07:11:54.891Z,941.10
2022-07-29T07:12:54.504Z,941.14
2022-07-29T07:13:56.187Z,941.14
2022-07-29T07:14:53.388Z,941.14
2022-07-29T07:15:55.102Z,941.15
2022-07-29T07:16:52.772Z,941.13
2022-07-29T07:17:52.314Z,941.13
2022-07-29T07:18:52.885Z,941.14
2022-07-29T07:19:53.285Z,941.15
2022-07-29T07:20:55.626Z,941.14
2022-07-29T07:21:53.214Z,941.14
2022-07-29T07:22:53.459Z,941.10
2022-07-29T07:23:54.259Z,941.12
2022-07-29T07:24:52.327Z,941.13
2022-07-29T07:25:52.292Z,941.13
2022-07-29T07:26:54.061Z,941.09
2022-07-29T07:27:55.037Z,941.11
2022-07-29T07:28:52.449Z,941.10
2022-07-29T07:29:54.640Z,941.08
2022-07-29T07:30:52.220Z,941.08
2022-07-29T07:31:57.555Z,941.09
2022-07-29T07:32:54.713Z,941.09
2022-07-29T07:33:52.941Z,941.09
2022-07-29T07:34:52.173Z,941.07
2022-07-29T07:35:57.901Z,941.08
2022-07-29T07:36:52.150Z,941.07
2022-07-29T07:37:52.681Z,941.08
2022-07-29T07:38:52.144Z,941.08
2022-07-29T07:39:54.857Z,941.10
2022-07-29T07:40:57.125Z,941.11
2022-07-29T07:41:52.925Z,941.12
2022-07-29T07:42:53.360Z,941.13
2022-07-29T07:43:55.651Z,941.12
2022-07-29T07:45:12.455Z,941.10
2022-07-29T07:45:54.007Z,941.10
2022-07-29T07:46:52.360Z,941.13
2022-07-29T07:47:52.922Z,941.12
2022-07-29T07:48:52.116Z,941.09
2022-07-29T07:49:59.347Z,941.12
2022-07-29T07:50:56.794Z,941.12
2022-07-29T07:51:52.018Z,941.09
2022-07-29T07:52:52.256Z,941.06
2022-07-29T07:53:52.022Z,941.04
2022-07-29T07:54:52.017Z,941.01
2022-07-29T07:56:53.185Z,941.04
2022-07-29T07:57:52.016Z,941.06
2022-07-29T07:58:52.861Z,941.07
2022-07-29T08:00:23.020Z,941.09
2022-07-29T08:02:29.807Z,941.08
2022-07-29T08:02:35.171Z,941.10
2022-07-29T08:03:36.785Z,941.12
2022-07-29T08:05:04.902Z,941.14
2022-07-29T08:05:38.660Z,941.14
2022-07-29T08:07:01.881Z,941.12
2022-07-29T08:07:34.591Z,941.12
2022-07-29T08:08:34.559Z,941.10
2022-07-29T08:11:14.590Z,941.08
2022-07-29T08:12:24.442Z,941.10
2022-07-29T08:13:14.873Z,941.06
2022-07-29T08:14:56.262Z,941.06
2022-07-29T08:15:14.690Z,941.08
2022-07-29T08:17:51.380Z,941.08
2022-07-29T08:18:12.369Z,941.10
2022-07-29T08:19:20.954Z,941.10
2022-07-29T08:20:11.654Z,941.11
2022-07-29T08:31:09.047Z,941.11
2022-07-29T08:45:36.892Z,941.21
2022-07-29T08:46:36.818Z,941.23
2022-07-29T08:47:36.845Z,941.23
2022-07-29T08:48:36.860Z,941.21
2022-07-29T08:49:36.825Z,941.22
2022-07-29T08:50:36.815Z,941.20
2022-07-29T08:51:36.784Z,941.21
2022-07-29T08:52:36.791Z,941.23
2022-07-29T08:53:36.781Z,941.20
2022-07-29T08:54:37.010Z,941.21
2022-07-29T08:55:36.755Z,941.22
2022-07-29T08:56:36.792Z,941.25
2022-07-29T08:57:37.128Z,941.25
2022-07-29T08:58:38.498Z,941.26
2022-07-29T08:59:36.712Z,941.23
2022-07-29T09:00:36.693Z,941.26
2022-07-29T09:01:45.226Z,941.24
2022-07-29T09:02:36.669Z,941.25
2022-07-29T09:03:36.714Z,941.25
2022-07-29T09:04:36.645Z,941.23
2022-07-29T09:08:50.960Z,941.25
2022-07-29T09:13:15.621Z,941.23
2022-07-29T09:17:51.398Z,941.23
2022-07-29T09:18:51.438Z,941.21
2022-07-29T09:19:51.398Z,941.20
2022-07-29T09:20:51.536Z,941.21
2022-07-29T09:21:51.387Z,941.22
2022-07-29T09:22:51.400Z,941.20
2022-07-29T09:23:51.374Z,941.19
2022-07-29T09:24:51.376Z,941.21
2022-07-29T09:25:51.373Z,941.21
2022-07-29T09:26:51.651Z,941.22
2022-07-29T09:27:51.337Z,941.23
2022-07-29T09:28:51.356Z,941.23
2022-07-29T09:29:51.338Z,941.24
2022-07-29T09:30:51.325Z,941.25
2022-07-29T09:31:51.385Z,941.23
2022-07-29T09:32:51.294Z,941.23
2022-07-29T09:33:51.284Z,941.23
2022-07-29T09:34:53.680Z,941.23
2022-07-29T09:35:57.169Z,941.23
2022-07-29T09:36:51.279Z,941.21
2022-07-29T09:37:51.286Z,941.23
2022-07-29T09:38:51.246Z,941.26
2022-07-29T09:39:51.240Z,941.28
2022-07-29T09:40:51.225Z,941.27
2022-07-29T09:41:51.267Z,941.28
2022-07-29T09:42:51.215Z,941.29
2022-07-29T09:43:51.198Z,941.28
2022-07-29T09:44:51.190Z,941.29
2022-07-29T09:45:51.186Z,941.31
2022-07-29T09:46:51.238Z,941.29
2022-07-29T09:47:51.176Z,941.29
2022-07-29T09:48:51.179Z,941.30
2022-07-29T09:49:51.147Z,941.28
2022-07-29T09:50:51.197Z,941.25
2022-07-29T09:51:51.163Z,941.22
2022-07-29T09:52:51.207Z,941.26
2022-07-29T09:53:51.138Z,941.22
2022-07-29T09:54:51.161Z,941.19
2022-07-29T09:55:51.636Z,941.20
2022-07-29T09:56:51.100Z,941.20
2022-07-29T09:57:51.076Z,941.19
2022-07-29T09:58:51.113Z,941.18
2022-07-29T09:59:51.052Z,941.19
2022-07-29T10:00:51.164Z,941.18
2022-07-29T10:01:51.061Z,941.16
2022-07-29T10:02:51.092Z,941.18
2022-07-29T10:03:51.154Z,941.16
2022-07-29T10:04:51.011Z,941.15
2022-07-29T10:05:51.007Z,941.12
2022-07-29T10:06:51.050Z,941.09
2022-07-29T10:07:53.975Z,941.08
2022-07-29T10:08:50.977Z,941.11
2022-07-29T10:09:52.706Z,941.11
2022-07-29T10:10:50.954Z,941.09
2022-07-29T10:11:50.991Z,941.12
2022-07-29T10:12:50.936Z,941.10
2022-07-29T10:13:50.938Z,941.11
2022-07-29T10:14:50.926Z,941.09
2022-07-29T10:15:50.941Z,941.08
2022-07-29T10:18:45.876Z,941.07
2022-07-29T10:19:45.903Z,941.08
2022-07-29T10:20:45.887Z,941.09
2022-07-29T10:21:45.900Z,941.08
2022-07-29T10:22:54.117Z,941.07
2022-07-29T10:23:46.248Z,941.04
2022-07-29T10:24:45.847Z,941.02
2022-07-29T10:25:46.701Z,941.06
2022-07-29T10:26:45.867Z,941.07
2022-07-29T10:27:45.857Z,941.04
2022-07-29T10:28:45.811Z,941.03
2022-07-29T10:29:45.825Z,941.01
2022-07-29T10:30:45.799Z,940.96
2022-07-29T10:31:45.853Z,940.96
2022-07-29T10:32:45.782Z,940.99
2022-07-29T10:33:45.775Z,940.94
2022-07-29T10:34:45.761Z,940.94
2022-07-29T10:35:45.784Z,940.94
2022-07-29T10:36:45.782Z,940.92
2022-07-29T10:37:46.173Z,940.92
2022-07-29T10:38:47.128Z,940.94
2022-07-29T10:39:49.859Z,940.95
2022-07-29T10:40:45.712Z,940.90
2022-07-29T10:41:45.757Z,940.90
2022-07-29T10:42:45.697Z,940.87
2022-07-29T10:43:45.686Z,940.91
2022-07-29T10:44:45.670Z,940.91
2022-07-29T10:45:45.700Z,940.91
2022-07-29T10:46:45.787Z,940.89
2022-07-29T10:47:45.646Z,940.87
2022-07-29T10:48:45.658Z,940.88
2022-07-29T10:49:45.634Z,940.86
2022-07-29T10:50:45.648Z,940.86
2022-07-29T10:51:45.671Z,940.90
2022-07-29T10:52:45.599Z,940.89
2022-07-29T10:53:45.608Z,940.93
2022-07-29T10:54:45.584Z,940.92
2022-07-29T10:55:45.580Z,940.95
2022-07-29T10:56:45.567Z,940.98
2022-07-29T12:07:11.129Z,940.95
2022-07-29T12:07:20.399Z,940.82
2022-07-29T12:08:19.540Z,940.77
2022-07-29T12:09:19.529Z,940.76
2022-07-29T12:10:30.012Z,940.73
2022-07-29T12:13:08.592Z,940.69
2022-07-29T12:14:08.631Z,940.69
2022-07-29T12:15:17.084Z,940.68
2022-07-29T12:16:16.737Z,940.71
2022-07-29T12:17:08.579Z,940.74
2022-07-29T12:18:08.562Z,940.70
2022-07-29T12:19:16.622Z,940.69
2022-07-29T12:20:08.625Z,940.67
2022-07-29T12:21:08.537Z,940.67
2022-07-29T12:22:08.520Z,940.68
2022-07-29T12:23:08.513Z,940.71
2022-07-29T12:24:09.385Z,940.68
2022-07-29T12:25:32.831Z,940.68
2022-07-29T12:26:10.659Z,940.66
2022-07-29T12:27:08.465Z,940.70
2022-07-29T12:28:08.452Z,940.67
2022-07-29T12:29:14.075Z,940.68
2022-07-29T12:30:08.499Z,940.68
2022-07-29T12:31:08.514Z,940.68
2022-07-29T12:32:15.102Z,940.70
2022-07-29T12:33:08.425Z,940.67
2022-07-29T12:34:08.418Z,940.63
2022-07-29T12:35:08.404Z,940.63
2022-07-29T12:36:12.806Z,940.57
2022-07-29T12:37:08.386Z,940.58
2022-07-29T12:38:08.387Z,940.65
2022-07-29T12:39:08.353Z,940.59
2022-07-29T12:40:08.403Z,940.57
2022-07-29T12:41:08.358Z,940.55
2022-07-29T12:42:12.196Z,940.46
2022-07-29T12:43:08.347Z,940.48
2022-07-29T12:44:08.324Z,940.47
2022-07-29T12:45:08.319Z,940.43
2022-07-29T12:46:08.394Z,940.45
2022-07-29T12:47:08.296Z,940.39
2022-07-29T12:48:08.293Z,940.41
2022-07-29T12:49:08.451Z,940.43
2022-07-29T12:50:08.316Z,940.44
2022-07-29T12:51:08.259Z,940.50
2022-07-29T12:52:08.266Z,940.46
2022-07-29T12:53:08.253Z,940.47
2022-07-29T12:54:08.242Z,940.44
2022-07-29T12:55:08.240Z,940.45
2022-07-29T12:56:26.588Z,940.42
2022-07-29T12:57:08.206Z,940.38
2022-07-29T12:58:08.203Z,940.41
2022-07-29T12:59:08.185Z,940.48
2022-07-29T13:00:08.228Z,940.47
2022-07-29T13:01:17.144Z,940.41
2022-07-29T13:02:08.203Z,940.38
2022-07-29T13:03:08.157Z,940.41
2022-07-29T13:04:08.142Z,940.42
2022-07-29T13:05:08.233Z,940.41
2022-07-29T13:06:08.128Z,940.41
2022-07-29T13:07:08.249Z,940.39
2022-07-29T13:08:08.110Z,940.40
2022-07-29T13:09:08.109Z,940.43
2022-07-29T13:10:08.183Z,940.40
2022-07-29T13:11:08.087Z,940.41
2022-07-29T13:12:08.135Z,940.36
2022-07-29T13:13:08.069Z,940.33
2022-07-29T13:14:08.077Z,940.31
2022-07-29T13:15:08.112Z,940.30
2022-07-29T13:16:08.096Z,940.26
2022-07-29T13:17:08.042Z,940.26
2022-07-29T13:18:08.035Z,940.28
2022-07-29T13:19:08.017Z,940.24
2022-07-29T13:20:08.920Z,940.23
2022-07-29T13:21:07.995Z,940.24
2022-07-29T13:22:08.008Z,940.27
2022-07-29T13:23:07.984Z,940.26
2022-07-29T13:24:07.973Z,940.24
2022-07-29T13:25:08.027Z,940.23
2022-07-29T13:26:07.955Z,940.22
2022-07-29T13:27:07.961Z,940.22
2022-07-29T13:28:07.941Z,940.19
2022-07-29T13:29:07.935Z,940.20
2022-07-29T13:30:07.982Z,940.23
2022-07-29T13:31:07.922Z,940.19
2022-07-29T13:32:07.925Z,940.17
2022-07-29T13:33:07.894Z,940.24
2022-07-29T13:34:07.886Z,940.23
2022-07-29T13:35:07.880Z,940.21
2022-07-29T13:36:07.880Z,940.15
2022-07-29T13:37:07.888Z,940.19
2022-07-29T13:38:07.858Z,940.14
2022-07-29T13:39:07.843Z,940.16
2022-07-29T13:40:07.852Z,940.16
2022-07-29T13:41:07.829Z,940.16
2022-07-29T13:42:10.779Z,940.12
2022-07-29T13:43:07.828Z,940.12
2022-07-29T13:44:07.802Z,940.11
2022-07-29T13:45:07.804Z,940.12
2022-07-29T13:46:07.835Z,940.07
2022-07-29T13:47:07.785Z,940.08
2022-07-29T13:48:07.776Z,940.06
2022-07-29T13:49:07.901Z,940.09
2022-07-29T13:50:07.784Z,940.07
2022-07-29T13:51:07.741Z,940.10
2022-07-29T13:52:07.745Z,940.10
2022-07-29T13:53:07.721Z,940.08
2022-07-29T13:54:07.723Z,940.10
2022-07-29T13:55:07.706Z,940.11
2022-07-29T13:56:07.698Z,940.12
2022-07-29T13:57:07.701Z,940.11
2022-07-29T13:58:07.680Z,940.10
2022-07-29T13:59:07.687Z,940.10
2022-07-29T14:00:07.667Z,940.08
2022-07-29T14:01:07.745Z,940.08
2022-07-29T14:02:07.674Z,940.07
2022-07-29T14:03:07.635Z,940.09
2022-07-29T14:04:07.702Z,940.05
2022-07-29T14:05:08.684Z,940.04
2022-07-29T14:06:07.620Z,940.03
2022-07-29T14:07:07.614Z,940.00
2022-07-29T14:08:07.598Z,939.99
2022-07-29T14:09:07.586Z,940.01
2022-07-29T14:10:07.581Z,940.03
2022-07-29T14:11:07.562Z,940.02
2022-07-29T14:12:07.579Z,940.03
2022-07-29T14:13:21.825Z,940.01
2022-07-29T14:14:07.549Z,940.02
2022-07-29T14:15:07.532Z,940.02
2022-07-29T14:16:07.529Z,940.03
2022-07-29T14:17:07.985Z,940.04
2022-07-29T14:18:07.518Z,940.07
2022-07-29T14:19:07.518Z,940.07
2022-07-29T14:20:07.505Z,940.06
2022-07-29T14:21:07.487Z,940.06
2022-07-29T14:22:07.493Z,940.05
2022-07-29T14:23:07.519Z,940.05
2022-07-29T14:24:16.292Z,940.05
2022-07-29T14:25:14.747Z,940.06
2022-07-29T14:26:08.775Z,940.08
2022-07-29T14:27:07.664Z,940.09
2022-07-29T14:28:07.525Z,940.10
2022-07-29T14:29:07.452Z,940.11
2022-07-29T14:30:07.438Z,940.13
2022-07-29T14:31:07.402Z,940.16
2022-07-29T14:32:07.567Z,940.16
2022-07-29T14:33:07.403Z,940.18
2022-07-29T14:34:07.410Z,940.20
2022-07-29T14:35:07.393Z,940.22
2022-07-29T14:36:07.364Z,940.23
2022-07-29T14:37:07.373Z,940.24
2022-07-29T14:38:07.359Z,940.26
2022-07-29T14:39:07.351Z,940.29
2022-07-29T14:40:07.325Z,940.28
2022-07-29T14:41:07.316Z,940.33
2022-07-29T14:42:07.352Z,940.35
2022-07-29T14:43:07.297Z,940.36
2022-07-29T14:44:07.295Z,940.42
2022-07-29T14:45:07.316Z,940.45
2022-07-29T14:46:08.590Z,940.46
2022-07-29T14:47:08.047Z,940.47
2022-07-29T14:48:07.280Z,940.51
2022-07-29T14:49:07.305Z,940.52
2022-07-29T14:50:07.277Z,940.54
2022-07-29T14:51:07.233Z,940.54
2022-07-29T14:52:07.242Z,940.52
2022-07-29T14:53:07.217Z,940.55
2022-07-29T14:54:07.204Z,940.60
2022-07-29T14:55:16.378Z,940.63
2022-07-29T14:56:34.170Z,940.64
2022-07-29T14:57:07.207Z,940.66
2022-07-29T14:58:12.084Z,940.70
2022-07-29T14:59:07.180Z,940.71
2022-07-29T15:00:07.154Z,940.73
2022-07-29T15:01:07.216Z,940.74
2022-07-29T15:02:07.184Z,940.74
2022-07-29T15:03:11.188Z,940.73
2022-07-29T15:04:07.119Z,940.72
2022-07-29T15:05:07.119Z,940.71
2022-07-29T15:06:07.097Z,940.74
2022-07-29T15:07:07.109Z,940.73
2022-07-29T15:08:07.081Z,940.70
2022-07-29T15:09:07.092Z,940.71
2022-07-29T15:10:07.074Z,940.72
2022-07-29T15:11:07.063Z,940.74
2022-07-29T15:12:07.079Z,940.76
2022-07-29T15:13:07.038Z,940.76
2022-07-29T15:14:07.032Z,940.79
2022-07-29T15:15:07.074Z,940.82
2022-07-29T15:16:07.075Z,940.84
2022-07-29T15:17:07.126Z,940.90
2022-07-29T15:18:07.048Z,940.93
2022-07-29T15:19:07.034Z,940.95
2022-07-29T15:20:06.988Z,940.97
2022-07-29T15:21:06.998Z,941.00
2022-07-29T15:22:07.091Z,940.99
2022-07-29T15:23:06.978Z,940.99
2022-07-29T15:24:06.957Z,940.98
2022-07-29T15:25:06.944Z,940.98
2022-07-29T15:26:06.922Z,940.97
2022-07-29T15:27:06.929Z,940.99
2022-07-29T15:28:06.925Z,941.01
2022-07-29T15:29:06.920Z,941.02
2022-07-29T15:30:06.890Z,941.06
2022-07-29T15:31:06.895Z,941.09
2022-07-29T15:32:06.931Z,941.12
2022-07-29T15:33:06.883Z,941.12
2022-07-29T15:34:06.851Z,941.13
2022-07-29T15:35:06.882Z,941.14
2022-07-29T15:36:06.846Z,941.16
2022-07-29T15:37:06.852Z,941.14
2022-07-29T15:38:06.828Z,941.14
2022-07-29T15:39:06.822Z,941.19
2022-07-29T15:40:06.812Z,941.21
2022-07-29T15:41:06.804Z,941.20
2022-07-29T15:42:06.806Z,941.23
2022-07-29T15:43:07.007Z,941.27
2022-07-29T15:44:06.782Z,941.31
2022-07-29T15:45:06.771Z,941.35
2022-07-29T15:46:06.843Z,941.38
2022-07-29T15:47:06.747Z,941.38
2022-07-29T15:48:06.746Z,941.40
2022-07-29T15:49:06.774Z,941.43
2022-07-29T15:50:06.729Z,941.46
2022-07-29T15:51:06.712Z,941.52
2022-07-29T15:52:06.724Z,941.58
2022-07-29T15:53:06.693Z,941.63
2022-07-29T15:54:06.680Z,941.71
2022-07-29T15:55:06.696Z,941.79
2022-07-29T15:56:06.675Z,941.83
2022-07-29T15:57:06.657Z,941.93
2022-07-29T15:58:06.659Z,941.88
2022-07-29T15:59:06.646Z,941.97
2022-07-29T16:00:06.629Z,941.90
2022-07-29T16:01:06.685Z,942.00
2022-07-29T16:02:06.616Z,941.97
2022-07-29T16:03:06.628Z,941.99
2022-07-29T16:04:06.657Z,941.91
2022-07-29T16:05:09.279Z,941.92
2022-07-29T16:06:06.577Z,942.04
2022-07-29T16:07:06.573Z,942.06
2022-07-29T16:08:06.622Z,942.00
2022-07-29T16:09:06.553Z,941.99
2022-07-29T16:10:06.564Z,941.99
2022-07-29T16:11:06.540Z,941.99
2022-07-29T16:12:15.422Z,942.04
2022-07-29T16:13:06.545Z,942.14
2022-07-29T16:14:06.504Z,942.22
2022-07-29T16:15:09.912Z,942.31
2022-07-29T16:16:06.490Z,942.33
2022-07-29T16:17:06.497Z,942.37
2022-07-29T16:18:06.574Z,942.40
2022-07-29T16:19:06.487Z,942.39
2022-07-29T16:20:06.509Z,942.37
2022-07-29T16:21:06.450Z,942.40
2022-07-29T16:22:06.486Z,942.42
2022-07-29T16:23:06.497Z,942.40
2022-07-29T16:24:06.526Z,942.41
2022-07-29T16:25:06.513Z,942.43
2022-07-29T16:26:06.434Z,942.37
2022-07-29T16:27:06.435Z,942.30
2022-07-29T16:28:06.393Z,942.24
2022-07-29T16:29:06.418Z,942.15
2022-07-29T16:30:06.387Z,942.21
2022-07-29T16:31:06.362Z,942.28
2022-07-29T16:32:06.567Z,942.33
2022-07-29T16:33:08.354Z,942.34
2022-07-29T16:34:06.357Z,942.36
2022-07-29T16:35:06.338Z,942.36
2022-07-29T16:36:06.316Z,942.35
2022-07-29T16:37:06.306Z,942.40
2022-07-29T16:38:06.309Z,942.42
2022-07-29T16:39:06.303Z,942.48
2022-07-29T16:40:06.299Z,942.51
2022-07-29T16:41:06.305Z,942.46
2022-07-29T16:42:06.298Z,942.48
2022-07-29T16:43:06.573Z,942.50
2022-07-29T16:44:06.375Z,942.48
2022-07-29T16:45:06.253Z,942.53
2022-07-29T16:46:06.325Z,942.48
2022-07-29T16:47:06.334Z,942.50
2022-07-29T16:48:06.224Z,942.52
2022-07-29T16:49:06.294Z,942.47
2022-07-29T16:50:06.228Z,942.49
2022-07-29T16:51:06.208Z,942.48
2022-07-29T16:52:06.170Z,942.46
2022-07-29T16:53:06.174Z,942.45
2022-07-29T16:54:06.168Z,942.46
2022-07-29T16:55:06.178Z,942.47
2022-07-29T16:56:06.157Z,942.47
2022-07-29T16:57:06.191Z,942.45
2022-07-29T16:58:06.132Z,942.45
2022-07-29T16:59:06.123Z,942.44
2022-07-29T17:00:06.138Z,942.41
2022-07-29T17:01:06.153Z,942.38
2022-07-29T17:02:06.152Z,942.35
2022-07-29T17:03:06.092Z,942.29
2022-07-29T17:04:06.081Z,942.25
2022-07-29T17:05:06.097Z,942.21
2022-07-29T17:06:06.099Z,942.19
2022-07-29T17:07:06.052Z,942.17
2022-07-29T17:08:06.037Z,942.19
2022-07-29T17:09:06.058Z,942.16
2022-07-29T17:10:06.113Z,942.19
2022-07-29T17:11:06.048Z,942.20
2022-07-29T17:12:06.025Z,942.22
2022-07-29T17:13:05.993Z,942.23
2022-07-29T17:14:05.973Z,942.25
2022-07-29T17:15:05.990Z,942.27
2022-07-29T17:16:06.066Z,942.24
2022-07-29T17:17:13.701Z,942.23
2022-07-29T17:18:12.520Z,942.25
2022-07-29T17:19:05.941Z,942.22
2022-07-29T17:20:05.961Z,942.23
2022-07-29T17:21:05.946Z,942.17
2022-07-29T17:22:19.072Z,942.17
2022-07-29T17:23:05.921Z,942.19
2022-07-29T17:24:05.908Z,942.19
2022-07-29T17:25:05.938Z,942.19
2022-07-29T17:26:05.942Z,942.18
2022-07-29T17:27:08.705Z,942.20
2022-07-29T17:28:05.954Z,942.22
2022-07-29T17:29:05.850Z,942.22
2022-07-29T17:30:05.832Z,942.24
2022-07-29T17:31:05.983Z,942.27
2022-07-29T17:32:07.570Z,942.28
2022-07-29T17:33:05.810Z,942.32
2022-07-29T17:34:05.826Z,942.33
2022-07-29T17:35:05.826Z,942.34
2022-07-29T17:36:05.793Z,942.33
2022-07-29T17:37:05.816Z,942.37
2022-07-29T17:38:05.816Z,942.39
2022-07-29T17:39:05.768Z,942.42
2022-07-29T17:40:05.751Z,942.53
2022-07-29T17:41:07.791Z,942.71
2022-07-29T17:42:07.166Z,942.91
2022-07-29T17:43:05.814Z,942.94
2022-07-29T17:44:05.737Z,942.95
2022-07-29T17:45:05.710Z,942.97
2022-07-29T17:46:07.841Z,942.99
2022-07-29T17:47:15.554Z,943.00
2022-07-29T17:48:18.148Z,943.01
2022-07-29T17:49:10.106Z,943.03
2022-07-29T17:50:05.711Z,943.05
2022-07-29T17:51:05.915Z,943.05
2022-07-29T17:52:05.838Z,943.06
2022-07-29T17:53:15.542Z,943.02
2022-07-29T17:54:07.394Z,943.02
2022-07-29T17:57:02.912Z,942.94
2022-07-29T17:58:08.213Z,942.99
2022-07-29T17:59:06.266Z,942.96
2022-07-29T17:59:59.651Z,942.99
2022-07-29T18:01:23.426Z,942.99
2022-07-29T18:02:01.251Z,942.99
2022-07-29T18:03:00.689Z,943.01
2022-07-29T18:04:03.342Z,942.99
2022-07-29T18:05:01.399Z,943.00
2022-07-29T18:06:00.845Z,943.02
2022-07-29T18:07:01.020Z,943.05
2022-07-29T18:08:00.550Z,943.06
2022-07-29T18:14:11.831Z,943.09
2022-07-29T18:15:09.656Z,943.10
2022-07-29T18:16:09.479Z,943.12
2022-07-29T18:17:11.369Z,943.12
2022-07-29T18:21:54.448Z,943.23
2022-07-29T18:30:24.824Z,943.43
2022-07-29T18:31:23.696Z,943.45
2022-07-29T18:32:18.776Z,943.45
2022-07-29T18:33:21.795Z,943.44
2022-07-29T18:36:15.074Z,943.48
2022-07-29T18:52:55.969Z,943.55
2022-07-29T18:56:28.338Z,943.57
2022-07-29T18:56:34.536Z,943.62
2022-07-29T18:57:54.644Z,943.61
2022-07-29T18:58:35.062Z,943.63
2022-07-29T18:59:34.261Z,943.59
2022-07-29T19:00:41.470Z,943.60
2022-07-29T19:01:44.464Z,943.59
2022-07-29T19:02:33.705Z,943.56
2022-07-29T19:03:33.205Z,943.61
2022-07-29T19:04:33.455Z,943.60
2022-07-29T19:05:36.495Z,943.60
2022-07-29T19:06:37.038Z,943.60
2022-07-29T19:07:33.203Z,943.59
2022-07-29T19:08:36.613Z,943.58
2022-07-29T19:11:55.528Z,943.58
2022-07-29T19:12:03.689Z,943.59
2022-07-29T19:13:00.803Z,943.57
2022-07-29T19:14:00.780Z,943.57
2022-07-29T19:15:00.773Z,943.59
2022-07-29T19:16:00.816Z,943.58
2022-07-29T19:17:04.456Z,943.59
2022-07-29T19:18:09.129Z,943.61
2022-07-29T19:19:01.548Z,943.64
2022-07-29T19:20:00.786Z,943.66
2022-07-29T19:21:00.760Z,943.68
2022-07-29T19:22:00.748Z,943.69
2022-07-29T19:23:05.370Z,943.70
2022-07-29T19:29:13.169Z,943.76
2022-07-29T19:34:15.609Z,943.71
2022-07-29T19:34:46.468Z,943.74
2022-07-29T19:37:30.932Z,943.73
2022-07-29T19:38:30.790Z,943.77
2022-07-29T19:41:15.393Z,943.77
2022-07-29T19:43:54.315Z,943.77
2022-07-29T19:46:07.340Z,943.77
2022-07-29T19:46:19.383Z,943.81
2022-07-29T19:49:12.230Z,943.80
2022-07-29T19:50:52.458Z,943.79
2022-07-29T19:51:13.082Z,943.77
2022-07-29T19:52:15.055Z,943.77
2022-07-29T19:59:01.739Z,943.79
2022-07-29T20:00:02.682Z,943.78
2022-07-29T20:00:52.306Z,943.78
2022-07-29T20:01:51.256Z,943.79
2022-07-29T20:02:50.741Z,943.81
2022-07-29T20:05:37.673Z,943.78
2022-07-29T20:06:43.274Z,943.75
2022-07-29T20:11:06.083Z,943.80
2022-07-29T20:12:06.467Z,943.84
2022-07-29T20:15:10.805Z,943.84
2022-07-29T20:16:04.590Z,943.87
2022-07-29T20:17:06.509Z,943.89
2022-07-29T20:18:07.944Z,943.89
2022-07-29T20:19:04.524Z,943.87
2022-07-29T20:20:07.564Z,943.85
2022-07-29T20:21:37.851Z,943.84